createdAt,value
2022-10-20T00:02:12.583Z,92945.94
2022-10-20T00:04:43.564Z,92943.44
2022-10-20T00:07:12.887Z,92932.34
2022-10-20T00:09:42.505Z,92926.28
2022-10-20T00:12:11.790Z,92932.41
2022-10-20T00:14:41.176Z,92920.06
2022-10-20T00:17:10.564Z,92923.53
2022-10-20T00:19:41.247Z,92927.84
2022-10-20T00:22:10.654Z,92926.06
2022-10-20T00:24:40.078Z,92932.19
2022-10-20T00:27:09.567Z,92915.13
2022-10-20T00:29:39.162Z,92921.13
2022-10-20T00:32:08.508Z,92921.78
2022-10-20T00:34:37.828Z,92931.13
2022-10-20T00:37:08.566Z,92923.38
2022-10-20T00:39:37.944Z,92916.59
2022-10-20T00:42:08.004Z,92912.06
2022-10-20T00:44:57.186Z,92922.63
2022-10-20T00:47:39.574Z,92928.91
2022-10-20T00:51:35.032Z,92922.47
2022-10-20T00:54:10.625Z,92921.56
2022-10-20T00:56:44.992Z,92920.09
2022-10-20T00:59:16.629Z,92923.94
2022-10-20T01:01:46.840Z,92926.56
2022-10-20T01:04:16.511Z,92926.34
2022-10-20T01:06:47.510Z,92928.09
2022-10-20T01:09:16.986Z,92929.09
2022-10-20T01:11:57.154Z,92927.13
2022-10-20T01:14:40.729Z,92916.00
2022-10-20T01:17:23.985Z,92900.56
2022-10-20T01:20:25.512Z,92909.03
2022-10-20T01:24:01.544Z,92911.59
2022-10-20T01:27:22.997Z,92918.22
2022-10-20T01:30:03.726Z,92917.75
2022-10-20T01:33:10.036Z,92915.94
2022-10-20T01:35:56.166Z,92907.13
2022-10-20T01:38:35.166Z,92905.88
2022-10-20T01:41:11.526Z,92917.47
2022-10-20T01:43:45.090Z,92906.88
2022-10-20T01:46:19.207Z,92904.09
2022-10-20T01:48:49.816Z,92911.03
2022-10-20T01:51:19.049Z,92922.19
2022-10-20T01:53:48.566Z,92927.78
2022-10-20T01:56:26.651Z,92929.53
2022-10-20T01:59:32.844Z,92918.41
2022-10-20T02:02:25.264Z,92920.31
2022-10-20T02:05:18.266Z,92919.63
2022-10-20T02:07:47.586Z,92917.91
2022-10-20T02:10:22.921Z,92923.91
2022-10-20T02:13:00.369Z,92931.50
2022-10-20T02:15:33.486Z,92927.16
2022-10-20T02:18:09.305Z,92929.97
2022-10-20T02:20:38.754Z,92939.25
2022-10-20T02:23:09.013Z,92943.69
2022-10-20T02:25:40.524Z,92947.00
2022-10-20T02:28:13.885Z,92955.59
2022-10-20T02:30:44.549Z,92955.78
2022-10-20T02:33:17.893Z,92953.19
2022-10-20T02:35:58.894Z,92955.38
2022-10-20T02:38:28.285Z,92964.56
2022-10-20T02:40:57.486Z,92968.09
2022-10-20T02:43:26.818Z,92968.13
2022-10-20T02:45:56.368Z,92966.09
2022-10-20T02:48:27.274Z,92965.75
2022-10-20T02:50:56.477Z,92964.66
2022-10-20T02:53:25.895Z,92973.25
2022-10-20T02:55:55.722Z,92971.88
2022-10-20T02:58:25.098Z,92972.63
2022-10-20T03:00:54.579Z,92971.28
2022-10-20T03:03:25.308Z,92969.06
2022-10-20T03:05:54.727Z,92961.16
2022-10-20T03:08:24.005Z,92956.81
2022-10-20T03:10:53.432Z,92955.44
2022-10-20T03:13:22.823Z,92954.41
2022-10-20T03:15:52.265Z,92951.34
2022-10-20T03:18:21.478Z,92945.25
2022-10-20T03:20:54.856Z,92951.59
2022-10-20T03:23:24.805Z,92959.88
2022-10-20T03:25:55.691Z,92957.19
2022-10-20T03:28:24.927Z,92956.22
2022-10-20T03:30:54.268Z,92965.34
2022-10-20T03:33:23.585Z,92969.66
2022-10-20T03:35:54.704Z,92963.06
2022-10-20T03:38:24.080Z,92963.41
2022-10-20T03:40:54.040Z,92964.56
2022-10-20T03:43:23.482Z,92961.97
2022-10-20T03:45:52.872Z,92963.03
2022-10-20T03:48:22.339Z,92970.09
2022-10-20T03:52:31.851Z,92978.38
2022-10-20T03:55:01.113Z,92986.69
2022-10-20T03:57:30.531Z,92989.72
2022-10-20T03:59:59.814Z,92992.31
2022-10-20T04:02:36.774Z,92990.53
2022-10-20T04:05:08.601Z,92988.34
2022-10-20T04:07:39.372Z,92997.25
2022-10-20T04:10:10.609Z,92998.56
2022-10-20T04:12:40.022Z,93001.59
2022-10-20T04:15:11.225Z,93009.81
2022-10-20T04:17:40.873Z,93014.69
2022-10-20T04:20:11.306Z,93010.28
2022-10-20T04:22:42.105Z,93008.16
2022-10-20T04:25:12.593Z,93014.84
2022-10-20T04:27:42.085Z,93008.00
2022-10-20T04:30:12.850Z,93011.88
2022-10-20T04:32:42.146Z,93015.59
2022-10-20T04:35:13.559Z,93016.44
2022-10-20T04:37:44.446Z,93020.53
2022-10-20T04:40:14.433Z,93029.94
2022-10-20T04:42:43.753Z,93036.94
2022-10-20T04:45:13.429Z,93025.59
2022-10-20T04:47:42.969Z,93018.06
2022-10-20T04:50:12.493Z,93028.13
2022-10-20T04:52:43.193Z,93020.41
2022-10-20T04:55:12.396Z,93024.28
2022-10-20T04:57:41.647Z,93029.25
2022-10-20T05:00:12.693Z,93043.44
2022-10-20T05:02:42.166Z,93041.56
2022-10-20T05:05:12.221Z,93038.44
2022-10-20T05:07:42.990Z,93039.41
2022-10-20T05:10:12.951Z,93026.06
2022-10-20T05:12:42.219Z,93040.13
2022-10-20T05:15:12.371Z,93046.38
2022-10-20T05:17:41.672Z,93053.81
2022-10-20T05:20:12.142Z,93048.97
2022-10-20T05:22:42.900Z,93060.16
2022-10-20T05:25:35.088Z,93069.44
2022-10-20T05:28:01.565Z,93072.72
2022-10-20T05:30:31.061Z,93072.97
2022-10-20T05:33:00.311Z,93070.00
2022-10-20T05:35:30.535Z,93076.34
2022-10-20T05:38:01.715Z,93078.41
2022-10-20T05:40:31.132Z,93086.22
2022-10-20T05:43:00.402Z,93084.06
2022-10-20T05:45:29.732Z,93086.34
2022-10-20T05:47:59.088Z,93092.25
2022-10-20T05:50:28.523Z,93093.66
2022-10-20T05:52:59.370Z,93108.81
2022-10-20T05:55:28.808Z,93105.63
2022-10-20T05:57:58.113Z,93109.81
2022-10-20T06:00:31.228Z,93119.41
2022-10-20T06:03:00.870Z,93121.63
2022-10-20T06:05:30.098Z,93132.81
2022-10-20T06:08:00.908Z,93133.94
2022-10-20T06:10:30.261Z,93134.63
2022-10-20T06:12:59.585Z,93136.06
2022-10-20T06:15:28.965Z,93142.03
2022-10-20T06:17:58.345Z,93136.91
2022-10-20T06:20:27.804Z,93143.31
2022-10-20T06:22:57.157Z,93154.88
2022-10-20T06:25:28.089Z,93150.78
2022-10-20T06:27:57.411Z,93159.00
2022-10-20T06:30:26.781Z,93153.97
2022-10-20T06:32:56.836Z,93154.78
2022-10-20T06:35:26.087Z,93154.09
2022-10-20T06:37:55.429Z,93152.59
2022-10-20T06:40:24.811Z,93150.50
2022-10-20T06:45:29.986Z,93170.59
2022-10-20T06:47:59.261Z,93168.56
2022-10-20T06:52:31.791Z,93179.66
2022-10-20T06:55:01.205Z,93182.34
2022-10-20T06:57:32.849Z,93176.94
2022-10-20T07:00:02.070Z,93173.34
2022-10-20T07:02:31.312Z,93174.72
2022-10-20T07:05:00.716Z,93175.13
2022-10-20T07:07:31.545Z,93181.94
2022-10-20T07:10:00.898Z,93184.97
2022-10-20T07:12:30.160Z,93184.03
2022-10-20T07:14:59.423Z,93183.91
2022-10-20T07:17:28.861Z,93184.41
2022-10-20T07:19:58.109Z,93187.16
2022-10-20T07:22:27.468Z,93181.31
2022-10-20T07:24:59.715Z,93177.00
2022-10-20T07:27:29.002Z,93185.06
2022-10-20T07:29:58.365Z,93186.06
2022-10-20T07:32:27.692Z,93180.75
2022-10-20T07:34:56.926Z,93186.84
2022-10-20T07:37:26.232Z,93181.56
2022-10-20T07:39:56.967Z,93183.41
2022-10-20T07:42:26.287Z,93187.41
2022-10-20T07:44:57.262Z,93179.22
2022-10-20T07:47:26.610Z,93184.53
2022-10-20T07:49:55.935Z,93193.31
2022-10-20T07:52:25.239Z,93184.59
2022-10-20T07:55:06.253Z,93188.66
2022-10-20T07:57:45.317Z,93194.09
2022-10-20T08:00:15.954Z,93191.34
2022-10-20T08:02:45.818Z,93187.19
2022-10-20T08:05:15.789Z,93191.88
2022-10-20T08:07:45.163Z,93188.38
2022-10-20T08:10:14.462Z,93187.38
2022-10-20T08:12:45.313Z,93191.38
2022-10-20T08:15:14.732Z,93188.25
2022-10-20T08:17:44.053Z,93185.75
2022-10-20T08:20:14.161Z,93194.00
2022-10-20T08:22:43.412Z,93201.28
2022-10-20T08:25:16.848Z,93197.66
2022-10-20T08:27:47.593Z,93186.22
2022-10-20T08:30:23.908Z,93188.56
2022-10-20T08:32:54.193Z,93197.41
2022-10-20T08:35:24.132Z,93192.84
2022-10-20T08:37:53.772Z,93199.53
2022-10-20T08:40:27.911Z,93194.50
2022-10-20T08:42:59.460Z,93193.19
2022-10-20T08:45:32.729Z,93192.59
2022-10-20T08:48:05.832Z,93195.81
2022-10-20T08:50:36.694Z,93192.91
2022-10-20T08:53:06.532Z,93194.78
2022-10-20T08:55:36.032Z,93198.25
2022-10-20T08:58:11.892Z,93199.78
2022-10-20T09:00:42.451Z,93197.22
2022-10-20T09:03:18.980Z,93200.81
2022-10-20T09:05:54.349Z,93199.25
2022-10-20T09:08:27.847Z,93205.66
2022-10-20T09:10:57.800Z,93206.72
2022-10-20T09:13:32.690Z,93201.28
2022-10-20T09:16:06.532Z,93203.16
2022-10-20T09:18:36.855Z,93200.91
2022-10-20T09:21:13.244Z,93202.16
2022-10-20T09:23:46.850Z,93209.69
2022-10-20T09:26:37.496Z,93213.22
2022-10-20T09:29:14.476Z,93208.16
2022-10-20T09:31:47.576Z,93220.81
2022-10-20T09:34:26.075Z,93212.53
2022-10-20T09:36:59.427Z,93223.91
2022-10-20T09:39:33.352Z,93222.78
2022-10-20T09:42:07.420Z,93226.00
2022-10-20T09:44:50.880Z,93224.59
2022-10-20T09:47:22.492Z,93222.94
2022-10-20T09:52:38.203Z,93224.75
2022-10-20T09:55:21.563Z,93220.72
2022-10-20T09:57:51.608Z,93221.81
2022-10-20T10:00:37.312Z,93224.03
2022-10-20T10:03:21.419Z,93221.00
2022-10-20T10:05:59.150Z,93224.75
2022-10-20T10:08:42.633Z,93226.00
2022-10-20T10:11:20.352Z,93215.72
2022-10-20T10:13:52.713Z,93216.84
2022-10-20T10:16:24.291Z,93218.94
2022-10-20T10:19:02.620Z,93214.19
2022-10-20T10:21:45.608Z,93212.91
2022-10-20T10:24:47.748Z,93208.34
2022-10-20T10:27:26.727Z,93211.59
2022-10-20T10:29:57.666Z,93214.59
2022-10-20T10:32:29.322Z,93216.94
2022-10-20T10:35:13.642Z,93208.66
2022-10-20T10:37:45.680Z,93209.78
2022-10-20T10:40:21.136Z,93206.84
2022-10-20T10:43:30.073Z,93206.28
2022-10-20T10:46:02.063Z,93204.91
2022-10-20T10:49:06.213Z,93200.22
2022-10-20T10:51:53.515Z,93203.53
2022-10-20T10:54:44.885Z,93205.59
2022-10-20T10:57:28.042Z,93207.69
2022-10-20T11:00:01.297Z,93194.66
2022-10-20T11:03:25.870Z,93192.16
2022-10-20T11:06:08.693Z,93184.13
2022-10-20T11:08:58.430Z,93187.03
2022-10-20T11:11:44.486Z,93182.06
2022-10-20T11:14:29.755Z,93179.84
2022-10-20T11:17:22.091Z,93175.00
2022-10-20T11:20:21.565Z,93182.59
2022-10-20T11:23:18.415Z,93182.28
2022-10-20T11:25:56.401Z,93178.38
2022-10-20T11:28:34.851Z,93181.56
2022-10-20T11:31:07.739Z,93173.38
2022-10-20T11:33:47.157Z,93183.22
2022-10-20T11:36:20.939Z,93181.41
2022-10-20T11:38:54.408Z,93176.56
2022-10-20T11:41:31.202Z,93177.69
2022-10-20T11:44:06.130Z,93178.59
2022-10-20T11:46:43.650Z,93164.69
2022-10-20T11:49:13.598Z,93177.84
2022-10-20T11:52:38.501Z,93162.94
2022-10-20T11:55:38.944Z,93165.03
2022-10-20T11:58:30.682Z,93155.91
2022-10-20T12:01:29.226Z,93153.28
2022-10-20T12:04:38.353Z,93162.88
2022-10-20T12:08:05.787Z,93159.97
2022-10-20T12:10:56.725Z,93161.78
2022-10-20T12:13:40.302Z,93161.09
2022-10-20T12:16:10.245Z,93163.72
2022-10-20T12:18:40.306Z,93168.44
2022-10-20T12:21:13.668Z,93167.47
2022-10-20T12:24:05.986Z,93165.53
2022-10-20T12:27:21.904Z,93167.59
2022-10-20T12:29:57.736Z,93161.22
2022-10-20T12:32:40.266Z,93167.31
2022-10-20T12:35:34.118Z,93171.34
2022-10-20T12:38:06.038Z,93165.53
2022-10-20T12:40:44.957Z,93168.56
2022-10-20T12:43:36.833Z,93162.22
2022-10-20T12:46:21.402Z,93162.34
2022-10-20T12:52:35.554Z,93172.34
2022-10-20T12:55:10.325Z,93162.38
2022-10-20T12:57:42.700Z,93167.50
2022-10-20T13:00:58.620Z,93175.53
2022-10-20T13:03:47.119Z,93171.22
2022-10-20T13:06:51.525Z,93175.81
2022-10-20T13:09:26.313Z,93177.72
2022-10-20T13:12:06.525Z,93176.34
2022-10-20T13:14:57.771Z,93176.16
2022-10-20T13:17:54.525Z,93182.97
2022-10-20T13:20:40.774Z,93185.59
2022-10-20T13:23:14.519Z,93176.56
2022-10-20T13:25:48.237Z,93180.44
2022-10-20T13:28:23.315Z,93186.25
2022-10-20T13:31:21.166Z,93178.72
2022-10-20T13:34:06.049Z,93179.97
2022-10-20T13:37:03.011Z,93188.53
2022-10-20T13:39:44.225Z,93194.06
2022-10-20T13:42:30.405Z,93180.72
2022-10-20T13:45:13.187Z,93186.09
2022-10-20T13:47:52.213Z,93188.84
2022-10-20T13:50:28.074Z,93194.66
2022-10-20T13:53:00.847Z,93198.75
2022-10-20T13:55:33.254Z,93185.00
2022-10-20T13:58:08.907Z,93197.69
2022-10-20T14:00:38.297Z,93194.25
2022-10-20T14:03:18.945Z,93199.75
2022-10-20T14:05:48.256Z,93195.84
2022-10-20T14:08:23.168Z,93205.03
2022-10-20T14:10:57.343Z,93204.97
2022-10-20T14:13:34.571Z,93205.34
2022-10-20T14:16:07.450Z,93204.19
2022-10-20T14:18:40.277Z,93203.28
2022-10-20T14:21:17.875Z,93201.28
2022-10-20T14:23:49.373Z,93205.41
2022-10-20T14:26:22.268Z,93206.16
2022-10-20T14:28:55.385Z,93205.56
2022-10-20T14:31:26.913Z,93207.03
2022-10-20T14:33:56.461Z,93216.47
2022-10-20T14:36:29.521Z,93210.91
2022-10-20T14:39:01.541Z,93214.97
2022-10-20T14:41:33.915Z,93227.16
2022-10-20T14:44:11.380Z,93216.44
2022-10-20T14:46:53.733Z,93221.19
2022-10-20T14:49:29.551Z,93223.03
2022-10-20T14:52:02.013Z,93221.22
2022-10-20T14:54:37.165Z,93221.94
2022-10-20T14:57:41.372Z,93221.59
2022-10-20T15:00:34.012Z,93223.47
2022-10-20T15:03:08.191Z,93233.00
2022-10-20T15:05:42.770Z,93227.63
2022-10-20T15:08:25.821Z,93223.09
2022-10-20T15:10:55.675Z,93227.34
2022-10-20T15:13:28.818Z,93230.78
2022-10-20T15:16:01.788Z,93225.16
2022-10-20T15:18:36.404Z,93237.16
2022-10-20T15:21:12.073Z,93239.03
2022-10-20T15:23:41.473Z,93234.00
2022-10-20T15:26:15.346Z,93235.50
2022-10-20T15:28:47.764Z,93242.34
2022-10-20T15:31:23.945Z,93242.06
2022-10-20T15:33:54.565Z,93243.25
2022-10-20T15:36:29.017Z,93239.78
2022-10-20T15:38:59.009Z,93244.78
2022-10-20T15:41:30.954Z,93249.22
2022-10-20T15:44:09.311Z,93246.06
2022-10-20T15:46:40.313Z,93254.44
2022-10-20T15:52:31.946Z,93260.03
2022-10-20T15:55:01.427Z,93263.25
2022-10-20T15:57:30.805Z,93265.63
2022-10-20T16:00:00.301Z,93267.41
2022-10-20T16:02:29.645Z,93271.44
2022-10-20T16:04:58.872Z,93270.59
2022-10-20T16:07:28.190Z,93278.28
2022-10-20T16:09:59.001Z,93285.03
2022-10-20T16:12:28.271Z,93279.88
2022-10-20T16:14:57.590Z,93288.53
2022-10-20T16:17:26.811Z,93280.19
2022-10-20T16:19:56.164Z,93291.31
2022-10-20T16:22:26.702Z,93287.50
2022-10-20T16:25:01.495Z,93297.94
2022-10-20T16:27:30.985Z,93294.78
2022-10-20T16:30:01.146Z,93298.22
2022-10-20T16:32:34.376Z,93306.31
2022-10-20T16:35:06.598Z,93307.06
2022-10-20T16:37:36.705Z,93319.81
2022-10-20T16:40:09.625Z,93317.28
2022-10-20T16:42:38.811Z,93320.72
2022-10-20T16:45:09.837Z,93322.31
2022-10-20T16:47:40.241Z,93325.94
2022-10-20T16:50:10.452Z,93327.22
2022-10-20T16:52:39.834Z,93332.44
2022-10-20T16:55:12.188Z,93335.00
2022-10-20T16:57:41.646Z,93333.09
2022-10-20T17:00:12.576Z,93333.84
2022-10-20T17:02:43.186Z,93343.19
2022-10-20T17:05:12.588Z,93339.94
2022-10-20T17:07:41.957Z,93341.41
2022-10-20T17:10:13.785Z,93348.91
2022-10-20T17:12:43.145Z,93347.66
2022-10-20T17:15:13.434Z,93346.31
2022-10-20T17:17:42.727Z,93351.78
2022-10-20T17:20:13.486Z,93353.63
2022-10-20T17:22:42.792Z,93351.47
2022-10-20T17:25:13.947Z,93346.94
2022-10-20T17:27:43.289Z,93350.78
2022-10-20T17:30:15.034Z,93357.31
2022-10-20T17:32:44.492Z,93367.94
2022-10-20T17:35:14.752Z,93365.53
2022-10-20T17:37:44.130Z,93362.16
2022-10-20T17:40:15.170Z,93369.84
2022-10-20T17:42:44.489Z,93363.97
2022-10-20T17:45:14.131Z,93368.72
2022-10-20T17:47:43.478Z,93373.16
2022-10-20T17:50:13.231Z,93377.66
2022-10-20T17:52:42.548Z,93369.19
2022-10-20T17:55:13.593Z,93372.28
2022-10-20T17:57:42.925Z,93369.91
2022-10-20T18:00:22.488Z,93373.56
2022-10-20T18:02:56.227Z,93379.59
2022-10-20T18:05:25.565Z,93376.41
2022-10-20T18:07:54.926Z,93377.69
2022-10-20T18:10:25.746Z,93375.09
2022-10-20T18:12:55.007Z,93377.25
2022-10-20T18:15:24.272Z,93376.53
2022-10-20T18:17:53.685Z,93384.31
2022-10-20T18:20:23.047Z,93380.44
2022-10-20T18:22:52.363Z,93385.97
2022-10-20T18:25:22.029Z,93383.38
2022-10-20T18:27:54.465Z,93388.28
2022-10-20T18:30:23.807Z,93391.31
2022-10-20T18:32:53.650Z,93399.22
2022-10-20T18:35:23.794Z,93396.94
2022-10-20T18:37:57.605Z,93411.28
2022-10-20T18:40:27.092Z,93410.47
2022-10-20T18:42:57.831Z,93408.00
2022-10-20T18:45:27.209Z,93407.38
2022-10-20T18:47:56.611Z,93401.59
2022-10-20T18:52:31.933Z,93415.16
2022-10-20T18:55:01.331Z,93419.75
2022-10-20T18:57:35.123Z,93421.81
2022-10-20T19:00:05.119Z,93427.53
2022-10-20T19:02:35.682Z,93424.09
2022-10-20T19:05:05.422Z,93431.38
2022-10-20T19:07:37.059Z,93430.88
2022-10-20T19:10:08.426Z,93429.75
2022-10-20T19:12:37.973Z,93425.41
2022-10-20T19:15:08.934Z,93436.75
2022-10-20T19:17:38.273Z,93438.56
2022-10-20T19:20:08.668Z,93439.06
2022-10-20T19:22:39.985Z,93441.75
2022-10-20T19:25:11.071Z,93446.88
2022-10-20T19:27:40.632Z,93456.31
2022-10-20T19:30:11.105Z,93464.91
2022-10-20T19:32:43.550Z,93464.13
2022-10-20T19:35:13.295Z,93461.81
2022-10-20T19:37:44.050Z,93474.03
2022-10-20T19:40:14.528Z,93479.50
2022-10-20T19:42:43.927Z,93476.91
2022-10-20T19:45:13.161Z,93473.53
2022-10-20T19:47:42.589Z,93476.28
2022-10-20T19:50:11.914Z,93486.66
2022-10-20T19:52:42.686Z,93495.41
2022-10-20T19:55:12.031Z,93488.50
2022-10-20T19:57:42.735Z,93484.88
2022-10-20T20:00:13.412Z,93480.59
2022-10-20T20:02:43.613Z,93484.06
2022-10-20T20:05:12.871Z,93481.09
2022-10-20T20:07:43.645Z,93479.63
2022-10-20T20:10:13.080Z,93487.34
2022-10-20T20:12:42.416Z,93495.53
2022-10-20T20:15:11.721Z,93494.56
2022-10-20T20:17:41.124Z,93501.25
2022-10-20T20:20:10.874Z,93509.50
2022-10-20T20:22:40.092Z,93508.88
2022-10-20T20:25:11.950Z,93516.63
2022-10-20T20:27:41.213Z,93519.97
2022-10-20T20:30:11.905Z,93525.16
2022-10-20T20:32:44.020Z,93519.78
2022-10-20T20:35:16.470Z,93522.25
2022-10-20T20:37:45.789Z,93523.91
2022-10-20T20:40:18.389Z,93529.00
2022-10-20T20:42:47.910Z,93521.56
2022-10-20T20:45:18.096Z,93529.72
2022-10-20T20:47:48.171Z,93520.56
2022-10-20T20:50:17.713Z,93534.06
2022-10-20T20:52:47.085Z,93534.75
2022-10-20T20:55:17.853Z,93534.06
2022-10-20T20:57:47.175Z,93533.44
2022-10-20T21:00:17.102Z,93537.06
2022-10-20T21:02:46.787Z,93533.97
2022-10-20T21:05:16.273Z,93538.50
2022-10-20T21:07:45.672Z,93538.03
2022-10-20T21:10:16.445Z,93544.09
2022-10-20T21:12:48.582Z,93548.56
2022-10-20T21:15:18.008Z,93552.19
2022-10-20T21:17:59.843Z,93552.44
2022-10-20T21:20:29.803Z,93559.22
2022-10-20T21:22:59.615Z,93562.00
2022-10-20T21:25:30.974Z,93556.63
2022-10-20T21:28:00.765Z,93557.75
2022-10-20T21:33:03.017Z,93562.16
2022-10-20T21:35:33.315Z,93562.28
2022-10-20T21:38:03.260Z,93566.53
2022-10-20T21:40:34.736Z,93564.41
2022-10-20T21:43:04.516Z,93564.44
2022-10-20T21:45:34.375Z,93563.88
2022-10-20T21:48:03.949Z,93574.06
2022-10-20T21:52:31.271Z,93572.59
2022-10-20T21:55:00.494Z,93579.44
2022-10-20T21:57:29.896Z,93575.38
2022-10-20T21:59:59.268Z,93579.63
2022-10-20T22:02:28.583Z,93581.19
2022-10-20T22:04:57.882Z,93578.41
2022-10-20T22:07:27.962Z,93585.69
2022-10-20T22:09:58.630Z,93584.38
2022-10-20T22:12:28.075Z,93578.13
2022-10-20T22:14:57.405Z,93587.50
2022-10-20T22:17:26.894Z,93585.06
2022-10-20T22:19:56.536Z,93586.84
2022-10-20T22:22:25.831Z,93582.03
2022-10-20T22:24:55.055Z,93580.81
2022-10-20T22:27:41.799Z,93580.50
2022-10-20T22:30:13.231Z,93592.41
2022-10-20T22:32:42.825Z,93584.41
2022-10-20T22:35:12.247Z,93582.66
2022-10-20T22:37:41.424Z,93591.31
2022-10-20T22:40:12.267Z,93594.09
2022-10-20T22:42:42.953Z,93583.03
2022-10-20T22:45:13.126Z,93587.34
2022-10-20T22:47:42.485Z,93586.56
2022-10-20T22:50:12.155Z,93593.41
2022-10-20T22:52:41.566Z,93587.41
2022-10-20T22:55:11.348Z,93591.03
2022-10-20T22:57:42.150Z,93594.53
2022-10-20T23:00:14.282Z,93599.69
2022-10-20T23:02:43.942Z,93601.28
2022-10-20T23:05:13.566Z,93600.50
2022-10-20T23:07:42.987Z,93598.19
2022-10-20T23:10:12.712Z,93602.63
2022-10-20T23:12:43.534Z,93593.22
2022-10-20T23:15:13.414Z,93600.03
2022-10-20T23:17:42.676Z,93595.13
2022-10-20T23:20:13.255Z,93588.03
2022-10-20T23:22:42.606Z,93594.38
2022-10-20T23:25:12.270Z,93586.19
2022-10-20T23:27:43.103Z,93587.78
2022-10-20T23:30:13.105Z,93588.44
2022-10-20T23:32:42.375Z,93592.97
2022-10-20T23:35:12.008Z,93587.69
2022-10-20T23:37:41.425Z,93592.22
2022-10-20T23:40:12.489Z,93584.34
2022-10-20T23:42:43.322Z,93585.84
2022-10-20T23:45:13.213Z,93594.41
2022-10-20T23:47:42.511Z,93584.69
2022-10-20T23:50:12.149Z,93590.50
2022-10-20T23:52:41.477Z,93593.91
2022-10-20T23:55:14.709Z,93590.66
2022-10-20T23:57:46.563Z,93586.34
